sensor_id;sensor_type;location;lat;lon;timestamp;pressure;altitude;pressure_sealevel;temperature;humidity
70690;BME280;58267;51.156;17.044;2023-02-10T00:01:59;101918.10;;;2.87;30.87
70690;BME280;58267;51.156;17.044;2023-02-10T00:04:25;101920.65;;;2.72;30.76
70690;BME280;58267;51.156;17.044;2023-02-10T00:06:50;101918.05;;;2.59;30.86
70690;BME280;58267;51.156;17.044;2023-02-10T00:09:16;101924.35;;;2.59;30.96
70690;BME280;58267;51.156;17.044;2023-02-10T00:11:41;101927.90;;;2.97;30.99
70690;BME280;58267;51.156;17.044;2023-02-10T00:14:07;101930.75;;;2.64;31.16
70690;BME280;58267;51.156;17.044;2023-02-10T00:16:34;101928.84;;;3.12;30.91
70690;BME280;58267;51.156;17.044;2023-02-10T00:18:58;101931.46;;;3.28;30.76
70690;BME280;58267;51.156;17.044;2023-02-10T00:21:24;101931.73;;;3.09;30.68
70690;BME280;58267;51.156;17.044;2023-02-10T00:23:50;101931.27;;;2.94;30.72
70690;BME280;58267;51.156;17.044;2023-02-10T00:26:15;101929.18;;;2.83;30.78
70690;BME280;58267;51.156;17.044;2023-02-10T00:28:41;101930.54;;;2.88;30.67
70690;BME280;58267;51.156;17.044;2023-02-10T00:31:07;101931.96;;;2.69;30.80
70690;BME280;58267;51.156;17.044;2023-02-10T00:33:32;101931.92;;;2.87;30.88
70690;BME280;58267;51.156;17.044;2023-02-10T00:35:58;101926.11;;;2.54;30.91
70690;BME280;58267;51.156;17.044;2023-02-10T00:38:23;101924.51;;;2.74;30.99
70690;BME280;58267;51.156;17.044;2023-02-10T00:40:49;101924.86;;;2.92;31.00
70690;BME280;58267;51.156;17.044;2023-02-10T00:43:14;101925.79;;;2.39;31.05
70690;BME280;58267;51.156;17.044;2023-02-10T00:45:39;101935.76;;;2.36;31.11
70690;BME280;58267;51.156;17.044;2023-02-10T00:48:05;101936.63;;;2.18;31.32
70690;BME280;58267;51.156;17.044;2023-02-10T00:50:30;101937.55;;;2.89;31.05
70690;BME280;58267;51.156;17.044;2023-02-10T00:52:55;101938.47;;;2.62;31.12
70690;BME280;58267;51.156;17.044;2023-02-10T00:55:20;101940.14;;;2.41;31.28
70690;BME280;58267;51.156;17.044;2023-02-10T00:57:46;101937.43;;;3.26;30.76
70690;BME280;58267;51.156;17.044;2023-02-10T01:00:13;101939.47;;;2.87;30.93
70690;BME280;58267;51.156;17.044;2023-02-10T01:02:37;101935.08;;;2.47;31.19
70690;BME280;58267;51.156;17.044;2023-02-10T01:05:03;101939.56;;;2.89;31.26
70690;BME280;58267;51.156;17.044;2023-02-10T01:07:29;101936.95;;;2.47;31.39
70690;BME280;58267;51.156;17.044;2023-02-10T01:09:54;101933.03;;;2.73;31.40
70690;BME280;58267;51.156;17.044;2023-02-10T01:12:20;101927.14;;;2.74;31.33
70690;BME280;58267;51.156;17.044;2023-02-10T01:14:47;101924.74;;;2.38;31.84
70690;BME280;58267;51.156;17.044;2023-02-10T01:17:12;101920.40;;;2.53;31.68
70690;BME280;58267;51.156;17.044;2023-02-10T01:19:37;101910.95;;;2.02;31.72
70690;BME280;58267;51.156;17.044;2023-02-10T01:22:03;101907.83;;;2.04;32.15
70690;BME280;58267;51.156;17.044;2023-02-10T01:24:28;101907.98;;;2.36;31.81
70690;BME280;58267;51.156;17.044;2023-02-10T01:26:54;101902.86;;;2.45;31.66
70690;BME280;58267;51.156;17.044;2023-02-10T01:29:20;101898.07;;;2.27;31.83
70690;BME280;58267;51.156;17.044;2023-02-10T01:31:45;101899.05;;;2.13;31.96
70690;BME280;58267;51.156;17.044;2023-02-10T01:34:10;101897.44;;;1.69;32.48
70690;BME280;58267;51.156;17.044;2023-02-10T01:36:36;101899.60;;;2.06;32.27
70690;BME280;58267;51.156;17.044;2023-02-10T01:39:01;101900.99;;;1.97;32.33
70690;BME280;58267;51.156;17.044;2023-02-10T01:41:27;101900.50;;;1.88;32.47
70690;BME280;58267;51.156;17.044;2023-02-10T01:43:57;101899.55;;;1.77;32.58
70690;BME280;58267;51.156;17.044;2023-02-10T01:46:17;101900.34;;;2.13;32.18
70690;BME280;58267;51.156;17.044;2023-02-10T01:48:43;101897.89;;;2.17;32.07
70690;BME280;58267;51.156;17.044;2023-02-10T01:51:08;101896.28;;;1.93;32.37
70690;BME280;58267;51.156;17.044;2023-02-10T01:53:33;101891.81;;;1.62;32.38
70690;BME280;58267;51.156;17.044;2023-02-10T01:56:00;101891.34;;;1.91;32.57
70690;BME280;58267;51.156;17.044;2023-02-10T01:58:26;101889.73;;;1.56;32.65
70690;BME280;58267;51.156;17.044;2023-02-10T02:00:50;101891.40;;;1.22;32.90
70690;BME280;58267;51.156;17.044;2023-02-10T02:03:15;101896.20;;;1.27;33.15
70690;BME280;58267;51.156;17.044;2023-02-10T02:05:41;101904.40;;;1.43;32.96
70690;BME280;58267;51.156;17.044;2023-02-10T02:08:08;101906.71;;;1.25;33.23
70690;BME280;58267;51.156;17.044;2023-02-10T02:10:44;101908.48;;;1.47;33.16
70690;BME280;58267;51.156;17.044;2023-02-10T02:13:01;101917.14;;;1.84;32.75
70690;BME280;58267;51.156;17.044;2023-02-10T02:15:27;101922.00;;;1.17;33.61
70690;BME280;58267;51.156;17.044;2023-02-10T02:17:52;101926.40;;;1.19;33.26
70690;BME280;58267;51.156;17.044;2023-02-10T02:22:51;101921.20;;;1.93;32.39
70690;BME280;58267;51.156;17.044;2023-02-10T02:25:13;101913.99;;;1.78;32.52
70690;BME280;58267;51.156;17.044;2023-02-10T02:27:39;101906.02;;;2.02;32.20
70690;BME280;58267;51.156;17.044;2023-02-10T02:32:21;101909.37;;;1.46;32.62
70690;BME280;58267;51.156;17.044;2023-02-10T02:34:49;101914.03;;;1.56;32.56
70690;BME280;58267;51.156;17.044;2023-02-10T02:37:14;101913.16;;;2.03;32.10
70690;BME280;58267;51.156;17.044;2023-02-10T02:39:37;101911.34;;;1.96;32.11
70690;BME280;58267;51.156;17.044;2023-02-10T02:44:27;101914.40;;;1.79;32.27
70690;BME280;58267;51.156;17.044;2023-02-10T02:46:58;101914.70;;;1.65;32.15
70690;BME280;58267;51.156;17.044;2023-02-10T02:49:25;101911.94;;;1.68;32.37
70690;BME280;58267;51.156;17.044;2023-02-10T02:51:51;101909.83;;;1.45;32.60
70690;BME280;58267;51.156;17.044;2023-02-10T02:54:16;101905.70;;;1.25;32.68
70690;BME280;58267;51.156;17.044;2023-02-10T02:56:39;101904.74;;;1.59;32.76
70690;BME280;58267;51.156;17.044;2023-02-10T02:59:03;101904.33;;;1.81;32.61
70690;BME280;58267;51.156;17.044;2023-02-10T03:01:31;101902.07;;;1.76;32.65
70690;BME280;58267;51.156;17.044;2023-02-10T03:03:53;101898.51;;;1.16;32.81
70690;BME280;58267;51.156;17.044;2023-02-10T03:06:17;101896.07;;;1.08;32.96
70690;BME280;58267;51.156;17.044;2023-02-10T03:08:42;101896.28;;;1.40;32.86
70690;BME280;58267;51.156;17.044;2023-02-10T03:11:08;101899.73;;;1.48;33.04
70690;BME280;58267;51.156;17.044;2023-02-10T03:13:33;101904.55;;;1.62;32.61
70690;BME280;58267;51.156;17.044;2023-02-10T03:15:59;101906.31;;;1.26;33.06
70690;BME280;58267;51.156;17.044;2023-02-10T03:18:23;101910.82;;;1.59;32.72
70690;BME280;58267;51.156;17.044;2023-02-10T03:20:50;101915.24;;;1.27;33.05
70690;BME280;58267;51.156;17.044;2023-02-10T03:23:16;101913.08;;;1.39;33.23
70690;BME280;58267;51.156;17.044;2023-02-10T03:25:44;101917.22;;;0.96;33.52
70690;BME280;58267;51.156;17.044;2023-02-10T03:28:07;101916.55;;;1.56;33.08
70690;BME280;58267;51.156;17.044;2023-02-10T03:30:33;101920.98;;;1.03;33.44
70690;BME280;58267;51.156;17.044;2023-02-10T03:32:58;101926.90;;;0.79;33.80
70690;BME280;58267;51.156;17.044;2023-02-10T03:35:24;101932.31;;;0.90;33.82
70690;BME280;58267;51.156;17.044;2023-02-10T03:37:49;101934.78;;;1.16;33.59
70690;BME280;58267;51.156;17.044;2023-02-10T03:40:15;101931.52;;;1.37;33.33
70690;BME280;58267;51.156;17.044;2023-02-10T03:42:40;101936.32;;;1.13;33.34
70690;BME280;58267;51.156;17.044;2023-02-10T03:45:06;101939.72;;;0.95;33.50
70690;BME280;58267;51.156;17.044;2023-02-10T03:47:30;101936.25;;;1.35;33.33
70690;BME280;58267;51.156;17.044;2023-02-10T03:49:56;101936.17;;;0.99;33.81
70690;BME280;58267;51.156;17.044;2023-02-10T03:52:21;101933.58;;;0.84;33.92
70690;BME280;58267;51.156;17.044;2023-02-10T03:54:47;101938.61;;;1.19;33.51
70690;BME280;58267;51.156;17.044;2023-02-10T03:57:13;101943.43;;;1.44;33.09
70690;BME280;58267;51.156;17.044;2023-02-10T03:59:38;101943.26;;;1.41;32.90
70690;BME280;58267;51.156;17.044;2023-02-10T04:02:04;101943.83;;;1.54;32.65
70690;BME280;58267;51.156;17.044;2023-02-10T04:04:30;101944.66;;;1.71;32.69
70690;BME280;58267;51.156;17.044;2023-02-10T04:06:55;101945.92;;;1.91;32.41
70690;BME280;58267;51.156;17.044;2023-02-10T04:09:20;101947.02;;;1.88;32.20
70690;BME280;58267;51.156;17.044;2023-02-10T04:11:46;101947.61;;;1.88;31.93
70690;BME280;58267;51.156;17.044;2023-02-10T04:14:11;101947.78;;;2.01;31.99
70690;BME280;58267;51.156;17.044;2023-02-10T04:16:36;101947.75;;;1.39;32.24
70690;BME280;58267;51.156;17.044;2023-02-10T04:19:02;101945.77;;;1.84;32.10
70690;BME280;58267;51.156;17.044;2023-02-10T04:21:27;101955.59;;;0.87;32.85
70690;BME280;58267;51.156;17.044;2023-02-10T04:23:53;101953.87;;;1.44;33.15
70690;BME280;58267;51.156;17.044;2023-02-10T04:26:18;101953.34;;;1.85;32.40
70690;BME280;58267;51.156;17.044;2023-02-10T04:28:43;101954.67;;;1.13;32.90
70690;BME280;58267;51.156;17.044;2023-02-10T04:31:09;101949.83;;;1.83;32.40
70690;BME280;58267;51.156;17.044;2023-02-10T04:33:34;101948.23;;;1.52;32.26
70690;BME280;58267;51.156;17.044;2023-02-10T04:35:59;101949.59;;;1.82;32.15
70690;BME280;58267;51.156;17.044;2023-02-10T04:38:24;101947.88;;;1.84;32.08
70690;BME280;58267;51.156;17.044;2023-02-10T04:40:50;101947.07;;;1.59;32.33
70690;BME280;58267;51.156;17.044;2023-02-10T04:43:16;101943.91;;;1.66;32.49
70690;BME280;58267;51.156;17.044;2023-02-10T04:45:41;101948.42;;;0.77;33.46
70690;BME280;58267;51.156;17.044;2023-02-10T04:48:07;101948.26;;;1.21;33.19
70690;BME280;58267;51.156;17.044;2023-02-10T04:50:32;101951.38;;;1.40;32.90
70690;BME280;58267;51.156;17.044;2023-02-10T04:52:58;101949.77;;;1.05;33.00
70690;BME280;58267;51.156;17.044;2023-02-10T04:55:23;101953.55;;;1.44;32.82
70690;BME280;58267;51.156;17.044;2023-02-10T04:57:49;101952.63;;;1.77;32.41
70690;BME280;58267;51.156;17.044;2023-02-10T05:00:15;101946.88;;;1.72;32.23
70690;BME280;58267;51.156;17.044;2023-02-10T05:02:40;101944.55;;;1.68;32.51
70690;BME280;58267;51.156;17.044;2023-02-10T05:05:05;101943.39;;;1.18;33.11
70690;BME280;58267;51.156;17.044;2023-02-10T05:07:30;101944.22;;;1.14;33.19
70690;BME280;58267;51.156;17.044;2023-02-10T05:09:56;101948.07;;;0.89;33.41
70690;BME280;58267;51.156;17.044;2023-02-10T05:12:21;101958.96;;;0.74;33.64
70690;BME280;58267;51.156;17.044;2023-02-10T05:14:46;101960.60;;;0.57;34.01
70690;BME280;58267;51.156;17.044;2023-02-10T05:17:12;101965.80;;;0.96;33.44
70690;BME280;58267;51.156;17.044;2023-02-10T05:19:37;101966.91;;;1.36;33.03
70690;BME280;58267;51.156;17.044;2023-02-10T05:22:03;101970.85;;;1.78;32.44
70690;BME280;58267;51.156;17.044;2023-02-10T05:24:29;101969.67;;;1.51;32.39
70690;BME280;58267;51.156;17.044;2023-02-10T05:26:54;101973.89;;;0.92;32.90
70690;BME280;58267;51.156;17.044;2023-02-10T05:29:20;101973.34;;;1.04;33.50
70690;BME280;58267;51.156;17.044;2023-02-10T05:31:45;101980.43;;;1.51;33.01
70690;BME280;58267;51.156;17.044;2023-02-10T05:34:11;101979.42;;;1.86;32.65
70690;BME280;58267;51.156;17.044;2023-02-10T05:36:36;101976.24;;;1.92;32.28
70690;BME280;58267;51.156;17.044;2023-02-10T05:39:01;101978.64;;;2.16;32.21
70690;BME280;58267;51.156;17.044;2023-02-10T05:41:27;101982.24;;;1.61;32.54
70690;BME280;58267;51.156;17.044;2023-02-10T05:43:52;101987.11;;;2.17;32.01
70690;BME280;58267;51.156;17.044;2023-02-10T05:46:17;101992.03;;;2.12;32.34
70690;BME280;58267;51.156;17.044;2023-02-10T05:48:42;101996.74;;;1.57;33.00
70690;BME280;58267;51.156;17.044;2023-02-10T05:51:08;102004.97;;;1.55;32.97
70690;BME280;58267;51.156;17.044;2023-02-10T05:53:34;102002.62;;;1.07;33.65
70690;BME280;58267;51.156;17.044;2023-02-10T05:55:59;102004.63;;;1.26;33.28
70690;BME280;58267;51.156;17.044;2023-02-10T05:58:24;102008.15;;;1.44;33.36
70690;BME280;58267;51.156;17.044;2023-02-10T06:00:49;102006.50;;;1.58;33.27
70690;BME280;58267;51.156;17.044;2023-02-10T06:03:15;102001.49;;;1.69;33.06
70690;BME280;58267;51.156;17.044;2023-02-10T06:05:42;102007.98;;;2.15;32.45
70690;BME280;58267;51.156;17.044;2023-02-10T06:08:06;102014.41;;;1.75;32.86
70690;BME280;58267;51.156;17.044;2023-02-10T06:10:32;102019.57;;;0.72;33.92
70690;BME280;58267;51.156;17.044;2023-02-10T06:12:57;102024.53;;;0.86;33.65
70690;BME280;58267;51.156;17.044;2023-02-10T06:15:23;102024.44;;;1.80;32.75
70690;BME280;58267;51.156;17.044;2023-02-10T06:17:48;102029.98;;;1.70;33.08
70690;BME280;58267;51.156;17.044;2023-02-10T06:20:14;102038.17;;;1.32;33.57
70690;BME280;58267;51.156;17.044;2023-02-10T06:22:39;102046.90;;;0.22;35.03
70690;BME280;58267;51.156;17.044;2023-02-10T06:25:05;102049.84;;;-0.04;35.43
70690;BME280;58267;51.156;17.044;2023-02-10T06:27:30;102049.86;;;0.70;34.67
70690;BME280;58267;51.156;17.044;2023-02-10T06:29:55;102048.77;;;1.21;34.13
70690;BME280;58267;51.156;17.044;2023-02-10T06:32:21;102040.33;;;1.08;34.24
70690;BME280;58267;51.156;17.044;2023-02-10T06:34:46;102040.72;;;1.99;33.22
70690;BME280;58267;51.156;17.044;2023-02-10T06:37:12;102039.64;;;2.48;32.67
70690;BME280;58267;51.156;17.044;2023-02-10T06:39:37;102038.33;;;2.12;32.47
70690;BME280;58267;51.156;17.044;2023-02-10T06:42:03;102043.44;;;2.30;32.50
70690;BME280;58267;51.156;17.044;2023-02-10T06:44:28;102050.56;;;1.74;32.79
70690;BME280;58267;51.156;17.044;2023-02-10T06:46:53;102048.62;;;1.15;33.51
70690;BME280;58267;51.156;17.044;2023-02-10T06:49:19;102048.29;;;1.04;34.20
70690;BME280;58267;51.156;17.044;2023-02-10T06:51:45;102048.74;;;1.05;34.49
70690;BME280;58267;51.156;17.044;2023-02-10T06:54:10;102046.64;;;1.32;33.94
70690;BME280;58267;51.156;17.044;2023-02-10T06:56:35;102046.97;;;1.03;34.45
70690;BME280;58267;51.156;17.044;2023-02-10T06:59:01;102045.63;;;1.73;33.76
70690;BME280;58267;51.156;17.044;2023-02-10T07:01:26;102045.49;;;1.69;33.52
70690;BME280;58267;51.156;17.044;2023-02-10T07:03:52;102045.78;;;0.85;34.46
70690;BME280;58267;51.156;17.044;2023-02-10T07:06:18;102040.57;;;1.48;33.57
70690;BME280;58267;51.156;17.044;2023-02-10T07:08:44;102043.09;;;1.29;33.96
70690;BME280;58267;51.156;17.044;2023-02-10T07:11:09;102050.27;;;1.55;33.65
70690;BME280;58267;51.156;17.044;2023-02-10T07:13:35;102050.14;;;0.99;34.64
70690;BME280;58267;51.156;17.044;2023-02-10T07:16:00;102055.24;;;1.01;34.83
70690;BME280;58267;51.156;17.044;2023-02-10T07:18:25;102071.50;;;-0.08;35.97
70690;BME280;58267;51.156;17.044;2023-02-10T07:20:51;102074.74;;;0.33;35.79
70690;BME280;58267;51.156;17.044;2023-02-10T07:23:17;102074.06;;;-0.15;37.06
70690;BME280;58267;51.156;17.044;2023-02-10T07:25:42;102078.78;;;0.48;36.63
70690;BME280;58267;51.156;17.044;2023-02-10T07:28:07;102068.55;;;1.05;35.34
70690;BME280;58267;51.156;17.044;2023-02-10T07:30:32;102070.69;;;1.08;35.15
70690;BME280;58267;51.156;17.044;2023-02-10T07:32:58;102075.51;;;0.44;36.22
70690;BME280;58267;51.156;17.044;2023-02-10T07:35:23;102075.28;;;1.83;34.58
70690;BME280;58267;51.156;17.044;2023-02-10T07:37:49;102079.64;;;1.92;34.51
70690;BME280;58267;51.156;17.044;2023-02-10T07:40:14;102081.66;;;1.66;34.53
70690;BME280;58267;51.156;17.044;2023-02-10T07:42:40;102083.84;;;1.11;35.37
70690;BME280;58267;51.156;17.044;2023-02-10T07:45:06;102079.47;;;1.19;35.64
70690;BME280;58267;51.156;17.044;2023-02-10T07:47:31;102077.89;;;1.97;34.77
70690;BME280;58267;51.156;17.044;2023-02-10T07:49:56;102071.25;;;1.41;34.64
70690;BME280;58267;51.156;17.044;2023-02-10T07:52:23;102072.11;;;2.05;34.48
70690;BME280;58267;51.156;17.044;2023-02-10T07:54:47;102062.78;;;2.33;33.93
70690;BME280;58267;51.156;17.044;2023-02-10T07:57:13;102069.49;;;2.33;34.15
70690;BME280;58267;51.156;17.044;2023-02-10T07:59:40;102073.79;;;1.02;36.40
70690;BME280;58267;51.156;17.044;2023-02-10T08:02:07;102077.80;;;1.27;36.74
70690;BME280;58267;51.156;17.044;2023-02-10T08:04:30;102081.37;;;1.14;37.02
70690;BME280;58267;51.156;17.044;2023-02-10T08:06:55;102088.25;;;1.08;37.55
70690;BME280;58267;51.156;17.044;2023-02-10T08:09:20;102090.06;;;0.27;38.77
70690;BME280;58267;51.156;17.044;2023-02-10T08:11:46;102080.54;;;0.81;38.49
70690;BME280;58267;51.156;17.044;2023-02-10T08:14:11;102073.24;;;0.74;38.79
70690;BME280;58267;51.156;17.044;2023-02-10T08:16:37;102072.88;;;1.71;37.55
70690;BME280;58267;51.156;17.044;2023-02-10T08:19:02;102073.19;;;1.63;37.89
70690;BME280;58267;51.156;17.044;2023-02-10T08:21:28;102081.84;;;1.50;38.46
70690;BME280;58267;51.156;17.044;2023-02-10T08:23:53;102083.64;;;1.71;38.24
70690;BME280;58267;51.156;17.044;2023-02-10T08:26:19;102079.43;;;2.33;37.45
70690;BME280;58267;51.156;17.044;2023-02-10T08:28:44;102084.48;;;1.49;39.03
70690;BME280;58267;51.156;17.044;2023-02-10T08:31:09;102079.51;;;1.79;38.83
70690;BME280;58267;51.156;17.044;2023-02-10T08:33:36;102076.03;;;2.05;37.96
70690;BME280;58267;51.156;17.044;2023-02-10T08:36:04;102076.43;;;2.35;38.13
70690;BME280;58267;51.156;17.044;2023-02-10T08:38:27;102082.08;;;1.32;40.20
70690;BME280;58267;51.156;17.044;2023-02-10T08:40:56;102081.80;;;1.71;39.90
70690;BME280;58267;51.156;17.044;2023-02-10T08:43:18;102075.00;;;2.17;39.61
70690;BME280;58267;51.156;17.044;2023-02-10T08:45:44;102078.46;;;1.14;41.12
70690;BME280;58267;51.156;17.044;2023-02-10T08:48:09;102082.74;;;0.97;41.97
70690;BME280;58267;51.156;17.044;2023-02-10T08:50:36;102087.63;;;0.92;42.74
70690;BME280;58267;51.156;17.044;2023-02-10T08:53:00;102084.05;;;1.05;42.81
70690;BME280;58267;51.156;17.044;2023-02-10T08:55:26;102079.02;;;0.66;43.15
70690;BME280;58267;51.156;17.044;2023-02-10T08:57:51;102085.57;;;1.39;42.27
70690;BME280;58267;51.156;17.044;2023-02-10T09:00:17;102082.16;;;1.62;42.58
70690;BME280;58267;51.156;17.044;2023-02-10T09:02:41;102080.70;;;2.50;40.75
70690;BME280;58267;51.156;17.044;2023-02-10T09:05:07;102076.07;;;2.40;40.75
70690;BME280;58267;51.156;17.044;2023-02-10T09:07:33;102073.67;;;2.46;40.49
70690;BME280;58267;51.156;17.044;2023-02-10T09:09:57;102079.40;;;2.08;41.18
70690;BME280;58267;51.156;17.044;2023-02-10T09:12:22;102078.26;;;1.64;41.06
70690;BME280;58267;51.156;17.044;2023-02-10T09:14:48;102076.38;;;1.84;41.63
70690;BME280;58267;51.156;17.044;2023-02-10T09:17:14;102082.83;;;1.37;42.28
70690;BME280;58267;51.156;17.044;2023-02-10T09:19:39;102082.81;;;1.71;41.73
70690;BME280;58267;51.156;17.044;2023-02-10T09:22:06;102089.25;;;2.26;41.56
70690;BME280;58267;51.156;17.044;2023-02-10T09:24:31;102085.88;;;0.98;43.16
70690;BME280;58267;51.156;17.044;2023-02-10T09:26:57;102092.33;;;1.41;43.11
70690;BME280;58267;51.156;17.044;2023-02-10T09:29:22;102092.53;;;1.79;41.89
70690;BME280;58267;51.156;17.044;2023-02-10T09:31:48;102092.84;;;2.97;40.12
70690;BME280;58267;51.156;17.044;2023-02-10T09:34:13;102090.10;;;2.89;39.93
70690;BME280;58267;51.156;17.044;2023-02-10T09:36:38;102096.19;;;2.18;41.57
70690;BME280;58267;51.156;17.044;2023-02-10T09:39:04;102102.23;;;2.49;41.72
70690;BME280;58267;51.156;17.044;2023-02-10T09:41:39;102101.35;;;2.23;42.19
70690;BME280;58267;51.156;17.044;2023-02-10T09:44:01;102097.45;;;2.33;41.82
70690;BME280;58267;51.156;17.044;2023-02-10T09:46:28;102106.14;;;1.79;42.27
70690;BME280;58267;51.156;17.044;2023-02-10T09:48:54;102101.68;;;2.60;41.63
70690;BME280;58267;51.156;17.044;2023-02-10T09:51:15;102105.80;;;3.63;39.54
70690;BME280;58267;51.156;17.044;2023-02-10T09:53:37;102114.93;;;2.23;41.52
70690;BME280;58267;51.156;17.044;2023-02-10T09:56:03;102112.40;;;2.09;41.98
70690;BME280;58267;51.156;17.044;2023-02-10T09:58:31;102112.29;;;3.24;41.05
70690;BME280;58267;51.156;17.044;2023-02-10T10:00:56;102114.43;;;3.31;40.46
70690;BME280;58267;51.156;17.044;2023-02-10T10:03:21;102129.05;;;2.23;41.78
70690;BME280;58267;51.156;17.044;2023-02-10T10:05:50;102129.61;;;1.87;42.62
70690;BME280;58267;51.156;17.044;2023-02-10T10:08:16;102128.06;;;1.78;43.78
70690;BME280;58267;51.156;17.044;2023-02-10T10:10:38;102128.61;;;2.08;43.62
70690;BME280;58267;51.156;17.044;2023-02-10T10:13:00;102136.01;;;2.08;43.63
70690;BME280;58267;51.156;17.044;2023-02-10T10:15:29;102130.54;;;2.35;43.43
70690;BME280;58267;51.156;17.044;2023-02-10T10:18:00;102126.00;;;1.61;44.11
70690;BME280;58267;51.156;17.044;2023-02-10T10:20:28;102121.41;;;2.13;43.77
70690;BME280;58267;51.156;17.044;2023-02-10T10:22:48;102127.29;;;2.12;43.90
70690;BME280;58267;51.156;17.044;2023-02-10T10:25:20;102120.50;;;2.87;42.17
70690;BME280;58267;51.156;17.044;2023-02-10T10:27:38;102115.44;;;3.18;41.56
70690;BME280;58267;51.156;17.044;2023-02-10T10:30:04;102114.79;;;3.40;40.95
70690;BME280;58267;51.156;17.044;2023-02-10T10:32:35;102115.09;;;3.33;41.00
70690;BME280;58267;51.156;17.044;2023-02-10T10:34:51;102109.92;;;2.59;42.11
70690;BME280;58267;51.156;17.044;2023-02-10T10:37:16;102114.49;;;3.39;41.41
70690;BME280;58267;51.156;17.044;2023-02-10T10:39:42;102112.89;;;2.96;41.91
70690;BME280;58267;51.156;17.044;2023-02-10T10:42:14;102112.62;;;3.70;40.64
70690;BME280;58267;51.156;17.044;2023-02-10T10:44:31;102109.63;;;3.14;41.08
70690;BME280;58267;51.156;17.044;2023-02-10T10:47:03;102114.57;;;1.71;43.42
70690;BME280;58267;51.156;17.044;2023-02-10T10:49:21;102118.85;;;1.98;43.21
70690;BME280;58267;51.156;17.044;2023-02-10T10:51:47;102104.50;;;2.17;43.87
70690;BME280;58267;51.156;17.044;2023-02-10T10:54:15;102100.01;;;2.68;42.81
70690;BME280;58267;51.156;17.044;2023-02-10T10:56:43;102132.36;;;1.98;43.40
70690;BME280;58267;51.156;17.044;2023-02-10T10:59:11;102109.15;;;2.48;42.79
70690;BME280;58267;51.156;17.044;2023-02-10T11:01:34;102106.63;;;2.30;42.89
70690;BME280;58267;51.156;17.044;2023-02-10T11:06:19;102096.11;;;2.54;42.68
70690;BME280;58267;51.156;17.044;2023-02-10T11:08:52;102094.02;;;2.71;42.56
70690;BME280;58267;51.156;17.044;2023-02-10T11:11:11;102101.84;;;2.72;42.51
70690;BME280;58267;51.156;17.044;2023-02-10T11:13:37;102093.05;;;2.32;43.33
70690;BME280;58267;51.156;17.044;2023-02-10T11:16:03;102090.08;;;2.29;42.94
70690;BME280;58267;51.156;17.044;2023-02-10T11:18:26;102086.79;;;1.62;43.90
70690;BME280;58267;51.156;17.044;2023-02-10T11:20:55;102087.62;;;3.00;42.82
70690;BME280;58267;51.156;17.044;2023-02-10T11:23:18;102089.26;;;1.93;44.25
70690;BME280;58267;51.156;17.044;2023-02-10T11:25:47;102085.15;;;2.77;43.00
70690;BME280;58267;51.156;17.044;2023-02-10T11:28:16;102083.35;;;2.63;42.41
70690;BME280;58267;51.156;17.044;2023-02-10T11:30:37;102080.82;;;2.22;43.05
70690;BME280;58267;51.156;17.044;2023-02-10T11:33:06;102073.25;;;2.86;42.31
70690;BME280;58267;51.156;17.044;2023-02-10T11:35:31;102082.45;;;2.01;43.31
70690;BME280;58267;51.156;17.044;2023-02-10T11:37:58;102084.72;;;3.14;41.92
70690;BME280;58267;51.156;17.044;2023-02-10T11:40:24;102077.83;;;2.83;41.91
70690;BME280;58267;51.156;17.044;2023-02-10T11:42:48;102073.18;;;3.59;41.14
70690;BME280;58267;51.156;17.044;2023-02-10T11:45:18;102082.31;;;3.55;40.82
70690;BME280;58267;51.156;17.044;2023-02-10T11:47:38;102081.32;;;3.21;41.64
70690;BME280;58267;51.156;17.044;2023-02-10T11:52:30;102080.39;;;2.87;41.81
70690;BME280;58267;51.156;17.044;2023-02-10T11:54:54;102088.37;;;2.52;42.91
70690;BME280;58267;51.156;17.044;2023-02-10T11:57:34;102084.95;;;2.23;43.77
70690;BME280;58267;51.156;17.044;2023-02-10T11:59:56;102074.69;;;3.16;41.98
70690;BME280;58267;51.156;17.044;2023-02-10T12:02:18;102069.30;;;2.41;43.41
70690;BME280;58267;51.156;17.044;2023-02-10T12:07:12;102073.11;;;3.28;42.84
70690;BME280;58267;51.156;17.044;2023-02-10T12:09:37;102081.43;;;2.20;43.42
70690;BME280;58267;51.156;17.044;2023-02-10T12:12:02;102075.81;;;3.75;41.26
70690;BME280;58267;51.156;17.044;2023-02-10T12:14:35;102083.57;;;3.68;41.20
70690;BME280;58267;51.156;17.044;2023-02-10T12:16:53;102076.35;;;2.60;42.93
70690;BME280;58267;51.156;17.044;2023-02-10T12:19:20;102078.52;;;3.10;42.08
70690;BME280;58267;51.156;17.044;2023-02-10T12:21:48;102074.38;;;3.38;41.82
70690;BME280;58267;51.156;17.044;2023-02-10T12:24:14;102076.63;;;3.16;41.76
70690;BME280;58267;51.156;17.044;2023-02-10T12:26:33;102078.56;;;3.66;40.99
70690;BME280;58267;51.156;17.044;2023-02-10T12:29:03;102091.62;;;2.71;42.65
70690;BME280;58267;51.156;17.044;2023-02-10T12:31:28;102085.82;;;3.87;41.15
70690;BME280;58267;51.156;17.044;2023-02-10T12:36:20;102088.76;;;2.99;41.94
70690;BME280;58267;51.156;17.044;2023-02-10T12:41:11;102084.20;;;2.94;42.60
70690;BME280;58267;51.156;17.044;2023-02-10T12:43:39;102089.00;;;3.27;42.27
70690;BME280;58267;51.156;17.044;2023-02-10T12:45:59;102085.33;;;2.65;43.18
70690;BME280;58267;51.156;17.044;2023-02-10T12:48:26;102088.96;;;2.68;43.15
70690;BME280;58267;51.156;17.044;2023-02-10T12:53:13;102088.11;;;3.82;41.07
70690;BME280;58267;51.156;17.044;2023-02-10T12:55:43;102103.24;;;3.43;42.15
70690;BME280;58267;51.156;17.044;2023-02-10T12:58:03;102095.05;;;3.61;41.03
70690;BME280;58267;51.156;17.044;2023-02-10T13:00:29;102093.15;;;3.24;42.05
70690;BME280;58267;51.156;17.044;2023-02-10T13:02:56;102082.01;;;3.56;41.57